sensor_id;sensor_type;location;lat;lon;timestamp;P1;durP1;ratioP1;P2;durP2;ratioP2
37983;SDS011;64625;50.882;4.376;2023-03-14T00:01:59;7.82;;;1.92;;
37983;SDS011;64625;50.882;4.376;2023-03-14T00:04:24;9.10;;;1.70;;
37983;SDS011;64625;50.882;4.376;2023-03-14T00:06:50;6.70;;;2.13;;
37983;SDS011;64625;50.882;4.376;2023-03-14T00:09:16;6.35;;;1.75;;
37983;SDS011;64625;50.882;4.376;2023-03-14T00:11:42;5.85;;;1.60;;
37983;SDS011;64625;50.882;4.376;2023-03-14T00:14:08;14.48;;;2.22;;
37983;SDS011;64625;50.882;4.376;2023-03-14T00:16:34;16.63;;;2.42;;
37983;SDS011;64625;50.882;4.376;2023-03-14T00:19:00;9.15;;;1.80;;
37983;SDS011;64625;50.882;4.376;2023-03-14T00:21:26;9.05;;;2.42;;
37983;SDS011;64625;50.882;4.376;2023-03-14T00:23:52;12.55;;;2.90;;
37983;SDS011;64625;50.882;4.376;2023-03-14T00:26:20;8.55;;;1.83;;
37983;SDS011;64625;50.882;4.376;2023-03-14T00:28:47;7.95;;;2.13;;
37983;SDS011;64625;50.882;4.376;2023-03-14T00:31:17;13.70;;;2.35;;
37983;SDS011;64625;50.882;4.376;2023-03-14T00:33:44;8.15;;;2.25;;
37983;SDS011;64625;50.882;4.376;2023-03-14T00:36:11;8.07;;;2.28;;
37983;SDS011;64625;50.882;4.376;2023-03-14T00:38:39;11.05;;;3.05;;
37983;SDS011;64625;50.882;4.376;2023-03-14T00:41:07;13.77;;;2.15;;
37983;SDS011;64625;50.882;4.376;2023-03-14T00:43:38;13.13;;;1.50;;
37983;SDS011;64625;50.882;4.376;2023-03-14T00:46:07;9.73;;;1.98;;
37983;SDS011;64625;50.882;4.376;2023-03-14T00:48:33;5.60;;;2.08;;
37983;SDS011;64625;50.882;4.376;2023-03-14T00:51:00;20.80;;;3.80;;
37983;SDS011;64625;50.882;4.376;2023-03-14T00:53:27;9.80;;;4.05;;
37983;SDS011;64625;50.882;4.376;2023-03-14T00:55:52;10.85;;;2.13;;
37983;SDS011;64625;50.882;4.376;2023-03-14T00:58:18;8.57;;;2.28;;
37983;SDS011;64625;50.882;4.376;2023-03-14T01:00:44;7.40;;;3.00;;
37983;SDS011;64625;50.882;4.376;2023-03-14T01:03:11;8.32;;;2.10;;
37983;SDS011;64625;50.882;4.376;2023-03-14T01:05:39;16.92;;;2.55;;
37983;SDS011;64625;50.882;4.376;2023-03-14T01:08:05;14.43;;;2.65;;
37983;SDS011;64625;50.882;4.376;2023-03-14T01:10:40;15.38;;;4.28;;
37983;SDS011;64625;50.882;4.376;2023-03-14T01:13:07;19.85;;;3.53;;
37983;SDS011;64625;50.882;4.376;2023-03-14T01:15:34;13.10;;;2.83;;
37983;SDS011;64625;50.882;4.376;2023-03-14T01:18:01;14.13;;;2.60;;
37983;SDS011;64625;50.882;4.376;2023-03-14T01:20:27;15.05;;;3.05;;
37983;SDS011;64625;50.882;4.376;2023-03-14T01:22:53;12.90;;;2.38;;
37983;SDS011;64625;50.882;4.376;2023-03-14T01:25:18;13.50;;;2.75;;
37983;SDS011;64625;50.882;4.376;2023-03-14T01:27:44;16.85;;;2.90;;
37983;SDS011;64625;50.882;4.376;2023-03-14T01:30:10;12.35;;;2.78;;
37983;SDS011;64625;50.882;4.376;2023-03-14T01:32:38;20.65;;;2.80;;
37983;SDS011;64625;50.882;4.376;2023-03-14T01:35:04;14.05;;;3.03;;
37983;SDS011;64625;50.882;4.376;2023-03-14T01:37:30;15.30;;;2.35;;
37983;SDS011;64625;50.882;4.376;2023-03-14T01:39:56;8.82;;;2.20;;
37983;SDS011;64625;50.882;4.376;2023-03-14T01:42:21;8.05;;;2.45;;
37983;SDS011;64625;50.882;4.376;2023-03-14T01:47:13;8.20;;;1.85;;
37983;SDS011;64625;50.882;4.376;2023-03-14T01:49:39;16.45;;;3.20;;
37983;SDS011;64625;50.882;4.376;2023-03-14T01:52:25;23.30;;;2.85;;
37983;SDS011;64625;50.882;4.376;2023-03-14T01:55:00;14.73;;;4.00;;
37983;SDS011;64625;50.882;4.376;2023-03-14T01:57:31;19.30;;;2.00;;
37983;SDS011;64625;50.882;4.376;2023-03-14T02:00:20;6.75;;;1.55;;
37983;SDS011;64625;50.882;4.376;2023-03-14T02:02:48;11.35;;;1.88;;
37983;SDS011;64625;50.882;4.376;2023-03-14T02:05:21;10.20;;;1.33;;
37983;SDS011;64625;50.882;4.376;2023-03-14T02:10:24;8.52;;;2.03;;
37983;SDS011;64625;50.882;4.376;2023-03-14T02:12:55;5.95;;;1.35;;
37983;SDS011;64625;50.882;4.376;2023-03-14T02:15:25;7.50;;;1.25;;
37983;SDS011;64625;50.882;4.376;2023-03-14T02:17:51;6.90;;;1.52;;
37983;SDS011;64625;50.882;4.376;2023-03-14T02:20:21;7.35;;;1.50;;
37983;SDS011;64625;50.882;4.376;2023-03-14T02:22:59;4.65;;;1.83;;
37983;SDS011;64625;50.882;4.376;2023-03-14T02:25:28;4.85;;;1.10;;
37983;SDS011;64625;50.882;4.376;2023-03-14T02:28:00;7.20;;;2.10;;
37983;SDS011;64625;50.882;4.376;2023-03-14T02:30:27;5.35;;;1.45;;
37983;SDS011;64625;50.882;4.376;2023-03-14T02:33:00;11.38;;;1.35;;
37983;SDS011;64625;50.882;4.376;2023-03-14T02:35:36;2.25;;;0.93;;
37983;SDS011;64625;50.882;4.376;2023-03-14T02:38:33;11.32;;;1.70;;
37983;SDS011;64625;50.882;4.376;2023-03-14T02:41:12;10.20;;;1.48;;
37983;SDS011;64625;50.882;4.376;2023-03-14T02:43:38;6.13;;;3.15;;
37983;SDS011;64625;50.882;4.376;2023-03-14T02:46:04;11.43;;;1.63;;
37983;SDS011;64625;50.882;4.376;2023-03-14T02:48:41;3.25;;;1.20;;
37983;SDS011;64625;50.882;4.376;2023-03-14T02:51:12;6.15;;;2.03;;
37983;SDS011;64625;50.882;4.376;2023-03-14T02:53:39;3.58;;;1.73;;
37983;SDS011;64625;50.882;4.376;2023-03-14T02:56:06;12.05;;;2.83;;
37983;SDS011;64625;50.882;4.376;2023-03-14T02:58:33;3.42;;;1.63;;
37983;SDS011;64625;50.882;4.376;2023-03-14T03:00:59;6.97;;;2.78;;
37983;SDS011;64625;50.882;4.376;2023-03-14T03:03:25;15.68;;;3.15;;
37983;SDS011;64625;50.882;4.376;2023-03-14T03:05:52;14.20;;;4.13;;
37983;SDS011;64625;50.882;4.376;2023-03-14T03:08:20;14.10;;;5.63;;
37983;SDS011;64625;50.882;4.376;2023-03-14T03:10:48;9.98;;;3.00;;
37983;SDS011;64625;50.882;4.376;2023-03-14T03:13:17;18.63;;;3.80;;
37983;SDS011;64625;50.882;4.376;2023-03-14T03:15:43;14.43;;;4.45;;
37983;SDS011;64625;50.882;4.376;2023-03-14T03:18:09;18.00;;;3.92;;
37983;SDS011;64625;50.882;4.376;2023-03-14T03:20:36;18.77;;;3.15;;
37983;SDS011;64625;50.882;4.376;2023-03-14T03:23:08;10.40;;;4.05;;
37983;SDS011;64625;50.882;4.376;2023-03-14T03:25:36;11.57;;;2.85;;
37983;SDS011;64625;50.882;4.376;2023-03-14T03:30:44;9.07;;;3.30;;
37983;SDS011;64625;50.882;4.376;2023-03-14T03:33:10;21.23;;;3.63;;
37983;SDS011;64625;50.882;4.376;2023-03-14T03:35:47;15.15;;;4.90;;
37983;SDS011;64625;50.882;4.376;2023-03-14T03:38:14;15.48;;;4.00;;
37983;SDS011;64625;50.882;4.376;2023-03-14T03:40:40;12.68;;;3.20;;
37983;SDS011;64625;50.882;4.376;2023-03-14T03:43:07;14.13;;;4.03;;
37983;SDS011;64625;50.882;4.376;2023-03-14T03:45:33;15.20;;;3.72;;
37983;SDS011;64625;50.882;4.376;2023-03-14T03:47:59;15.95;;;4.00;;
37983;SDS011;64625;50.882;4.376;2023-03-14T03:50:25;13.75;;;3.67;;
37983;SDS011;64625;50.882;4.376;2023-03-14T03:52:51;8.93;;;4.57;;
37983;SDS011;64625;50.882;4.376;2023-03-14T03:55:17;19.00;;;4.75;;
37983;SDS011;64625;50.882;4.376;2023-03-14T03:57:42;15.00;;;6.82;;
37983;SDS011;64625;50.882;4.376;2023-03-14T04:00:10;17.45;;;5.95;;
37983;SDS011;64625;50.882;4.376;2023-03-14T04:02:37;19.00;;;5.53;;
37983;SDS011;64625;50.882;4.376;2023-03-14T04:05:03;10.50;;;4.78;;
37983;SDS011;64625;50.882;4.376;2023-03-14T04:07:31;16.25;;;5.97;;
37983;SDS011;64625;50.882;4.376;2023-03-14T04:09:57;15.13;;;5.22;;
37983;SDS011;64625;50.882;4.376;2023-03-14T04:12:23;15.32;;;5.95;;
37983;SDS011;64625;50.882;4.376;2023-03-14T04:14:49;20.08;;;4.85;;
37983;SDS011;64625;50.882;4.376;2023-03-14T04:17:15;12.05;;;4.40;;
37983;SDS011;64625;50.882;4.376;2023-03-14T04:19:40;18.08;;;4.53;;
37983;SDS011;64625;50.882;4.376;2023-03-14T04:22:07;14.05;;;4.53;;
37983;SDS011;64625;50.882;4.376;2023-03-14T04:24:34;16.13;;;4.00;;
37983;SDS011;64625;50.882;4.376;2023-03-14T04:27:00;11.65;;;3.30;;
37983;SDS011;64625;50.882;4.376;2023-03-14T04:29:25;16.33;;;4.70;;
37983;SDS011;64625;50.882;4.376;2023-03-14T04:31:51;10.43;;;3.92;;
37983;SDS011;64625;50.882;4.376;2023-03-14T04:34:17;12.40;;;4.07;;
37983;SDS011;64625;50.882;4.376;2023-03-14T04:36:43;11.80;;;3.78;;
37983;SDS011;64625;50.882;4.376;2023-03-14T04:39:08;13.02;;;3.17;;
37983;SDS011;64625;50.882;4.376;2023-03-14T04:41:34;12.50;;;3.13;;
37983;SDS011;64625;50.882;4.376;2023-03-14T04:44:00;13.70;;;3.88;;
37983;SDS011;64625;50.882;4.376;2023-03-14T04:46:26;12.77;;;3.28;;
37983;SDS011;64625;50.882;4.376;2023-03-14T04:48:51;6.78;;;2.00;;
37983;SDS011;64625;50.882;4.376;2023-03-14T04:51:17;13.18;;;2.28;;
37983;SDS011;64625;50.882;4.376;2023-03-14T04:53:43;6.43;;;3.03;;
37983;SDS011;64625;50.882;4.376;2023-03-14T04:56:08;10.27;;;3.33;;
37983;SDS011;64625;50.882;4.376;2023-03-14T04:58:34;9.98;;;2.25;;
37983;SDS011;64625;50.882;4.376;2023-03-14T05:01:05;10.13;;;4.15;;
37983;SDS011;64625;50.882;4.376;2023-03-14T05:05:57;6.43;;;2.13;;
37983;SDS011;64625;50.882;4.376;2023-03-14T05:08:24;7.10;;;2.45;;
37983;SDS011;64625;50.882;4.376;2023-03-14T05:10:56;9.70;;;3.33;;
37983;SDS011;64625;50.882;4.376;2023-03-14T05:13:23;8.43;;;1.90;;
37983;SDS011;64625;50.882;4.376;2023-03-14T05:15:49;4.00;;;1.90;;
37983;SDS011;64625;50.882;4.376;2023-03-14T05:18:21;7.95;;;2.60;;
37983;SDS011;64625;50.882;4.376;2023-03-14T05:20:47;9.02;;;2.28;;
37983;SDS011;64625;50.882;4.376;2023-03-14T05:23:17;5.32;;;2.42;;
37983;SDS011;64625;50.882;4.376;2023-03-14T05:25:43;6.10;;;2.33;;
37983;SDS011;64625;50.882;4.376;2023-03-14T05:28:09;7.43;;;2.30;;
37983;SDS011;64625;50.882;4.376;2023-03-14T05:30:35;7.00;;;2.25;;
37983;SDS011;64625;50.882;4.376;2023-03-14T05:33:01;6.43;;;2.08;;
37983;SDS011;64625;50.882;4.376;2023-03-14T05:35:26;10.40;;;2.30;;
37983;SDS011;64625;50.882;4.376;2023-03-14T05:37:52;5.68;;;1.80;;
37983;SDS011;64625;50.882;4.376;2023-03-14T05:40:18;4.85;;;2.08;;
37983;SDS011;64625;50.882;4.376;2023-03-14T05:42:44;3.80;;;1.55;;
37983;SDS011;64625;50.882;4.376;2023-03-14T05:45:10;8.15;;;2.55;;
37983;SDS011;64625;50.882;4.376;2023-03-14T05:47:36;7.07;;;2.13;;
37983;SDS011;64625;50.882;4.376;2023-03-14T05:50:05;10.32;;;2.22;;
37983;SDS011;64625;50.882;4.376;2023-03-14T05:52:31;6.30;;;2.63;;
37983;SDS011;64625;50.882;4.376;2023-03-14T05:54:57;3.80;;;2.33;;
37983;SDS011;64625;50.882;4.376;2023-03-14T05:57:22;4.88;;;3.47;;
37983;SDS011;64625;50.882;4.376;2023-03-14T05:59:48;4.03;;;2.42;;
37983;SDS011;64625;50.882;4.376;2023-03-14T06:02:14;7.13;;;2.60;;
37983;SDS011;64625;50.882;4.376;2023-03-14T06:04:40;5.88;;;3.10;;
37983;SDS011;64625;50.882;4.376;2023-03-14T06:07:05;6.78;;;3.05;;
37983;SDS011;64625;50.882;4.376;2023-03-14T06:09:33;5.90;;;2.72;;
37983;SDS011;64625;50.882;4.376;2023-03-14T06:11:59;5.63;;;3.03;;
37983;SDS011;64625;50.882;4.376;2023-03-14T06:14:25;3.25;;;2.72;;
37983;SDS011;64625;50.882;4.376;2023-03-14T06:16:51;4.05;;;2.38;;
37983;SDS011;64625;50.882;4.376;2023-03-14T06:19:17;4.95;;;3.08;;
37983;SDS011;64625;50.882;4.376;2023-03-14T06:21:43;12.55;;;3.38;;
37983;SDS011;64625;50.882;4.376;2023-03-14T06:24:12;10.82;;;3.03;;
37983;SDS011;64625;50.882;4.376;2023-03-14T06:26:38;7.28;;;3.03;;
37983;SDS011;64625;50.882;4.376;2023-03-14T06:29:04;6.80;;;2.97;;
37983;SDS011;64625;50.882;4.376;2023-03-14T06:31:30;10.20;;;4.20;;
37983;SDS011;64625;50.882;4.376;2023-03-14T06:33:56;5.63;;;2.80;;
37983;SDS011;64625;50.882;4.376;2023-03-14T06:36:22;7.93;;;3.00;;
37983;SDS011;64625;50.882;4.376;2023-03-14T06:38:48;5.25;;;2.58;;
37983;SDS011;64625;50.882;4.376;2023-03-14T06:41:14;7.35;;;2.88;;
37983;SDS011;64625;50.882;4.376;2023-03-14T06:43:40;9.95;;;3.75;;
37983;SDS011;64625;50.882;4.376;2023-03-14T06:46:06;4.45;;;3.50;;
37983;SDS011;64625;50.882;4.376;2023-03-14T06:48:32;5.63;;;3.40;;
37983;SDS011;64625;50.882;4.376;2023-03-14T06:50:58;13.35;;;4.75;;
37983;SDS011;64625;50.882;4.376;2023-03-14T06:53:24;5.20;;;3.58;;
37983;SDS011;64625;50.882;4.376;2023-03-14T06:55:49;4.55;;;3.28;;
37983;SDS011;64625;50.882;4.376;2023-03-14T06:58:16;8.38;;;2.95;;
37983;SDS011;64625;50.882;4.376;2023-03-14T07:00:42;7.05;;;2.85;;
37983;SDS011;64625;50.882;4.376;2023-03-14T07:03:08;9.13;;;3.88;;
37983;SDS011;64625;50.882;4.376;2023-03-14T07:05:35;8.32;;;2.90;;
37983;SDS011;64625;50.882;4.376;2023-03-14T07:08:01;9.70;;;3.22;;
37983;SDS011;64625;50.882;4.376;2023-03-14T07:10:27;4.43;;;3.13;;
37983;SDS011;64625;50.882;4.376;2023-03-14T07:12:56;3.75;;;2.58;;
37983;SDS011;64625;50.882;4.376;2023-03-14T07:15:22;3.50;;;2.70;;
37983;SDS011;64625;50.882;4.376;2023-03-14T07:17:48;9.73;;;3.05;;
37983;SDS011;64625;50.882;4.376;2023-03-14T07:20:13;11.93;;;3.08;;
37983;SDS011;64625;50.882;4.376;2023-03-14T07:22:39;6.82;;;2.50;;
37983;SDS011;64625;50.882;4.376;2023-03-14T07:25:05;5.75;;;2.13;;
37983;SDS011;64625;50.882;4.376;2023-03-14T07:27:31;12.48;;;2.75;;
37983;SDS011;64625;50.882;4.376;2023-03-14T07:29:58;13.48;;;3.47;;
37983;SDS011;64625;50.882;4.376;2023-03-14T07:32:24;3.03;;;2.30;;
37983;SDS011;64625;50.882;4.376;2023-03-14T07:34:50;5.00;;;1.65;;
37983;SDS011;64625;50.882;4.376;2023-03-14T07:37:16;7.38;;;2.17;;
37983;SDS011;64625;50.882;4.376;2023-03-14T07:39:42;8.52;;;2.10;;
37983;SDS011;64625;50.882;4.376;2023-03-14T07:42:07;8.73;;;2.60;;
37983;SDS011;64625;50.882;4.376;2023-03-14T07:44:33;6.22;;;2.72;;
37983;SDS011;64625;50.882;4.376;2023-03-14T07:47:02;9.40;;;2.83;;
37983;SDS011;64625;50.882;4.376;2023-03-14T07:49:28;5.63;;;2.90;;
37983;SDS011;64625;50.882;4.376;2023-03-14T07:51:54;15.93;;;3.10;;
37983;SDS011;64625;50.882;4.376;2023-03-14T07:54:20;6.60;;;2.88;;
37983;SDS011;64625;50.882;4.376;2023-03-14T07:56:45;8.77;;;3.03;;
37983;SDS011;64625;50.882;4.376;2023-03-14T07:59:11;7.18;;;3.22;;
37983;SDS011;64625;50.882;4.376;2023-03-14T08:01:37;10.18;;;4.60;;
37983;SDS011;64625;50.882;4.376;2023-03-14T08:04:03;13.10;;;4.70;;
37983;SDS011;64625;50.882;4.376;2023-03-14T08:06:29;15.23;;;4.30;;
37983;SDS011;64625;50.882;4.376;2023-03-14T08:08:55;12.88;;;5.55;;
37983;SDS011;64625;50.882;4.376;2023-03-14T08:11:21;14.50;;;7.00;;
37983;SDS011;64625;50.882;4.376;2023-03-14T08:13:47;13.63;;;4.90;;
37983;SDS011;64625;50.882;4.376;2023-03-14T08:16:15;10.77;;;5.50;;
37983;SDS011;64625;50.882;4.376;2023-03-14T08:18:42;9.23;;;4.43;;
37983;SDS011;64625;50.882;4.376;2023-03-14T08:21:08;10.43;;;5.70;;
37983;SDS011;64625;50.882;4.376;2023-03-14T08:23:34;17.90;;;5.55;;
37983;SDS011;64625;50.882;4.376;2023-03-14T08:26:00;9.18;;;4.03;;
37983;SDS011;64625;50.882;4.376;2023-03-14T08:28:27;10.23;;;4.45;;
37983;SDS011;64625;50.882;4.376;2023-03-14T08:30:59;11.40;;;4.15;;
37983;SDS011;64625;50.882;4.376;2023-03-14T08:33:26;14.90;;;5.13;;
37983;SDS011;64625;50.882;4.376;2023-03-14T08:35:57;12.27;;;4.53;;
37983;SDS011;64625;50.882;4.376;2023-03-14T08:38:24;7.55;;;3.90;;
37983;SDS011;64625;50.882;4.376;2023-03-14T08:40:57;7.22;;;4.28;;
37983;SDS011;64625;50.882;4.376;2023-03-14T08:43:24;10.98;;;5.60;;
37983;SDS011;64625;50.882;4.376;2023-03-14T08:45:51;9.20;;;5.05;;
37983;SDS011;64625;50.882;4.376;2023-03-14T08:48:16;16.15;;;5.43;;
37983;SDS011;64625;50.882;4.376;2023-03-14T08:50:43;7.65;;;4.00;;
37983;SDS011;64625;50.882;4.376;2023-03-14T08:53:09;5.57;;;4.38;;
37983;SDS011;64625;50.882;4.376;2023-03-14T08:55:35;14.18;;;4.15;;
37983;SDS011;64625;50.882;4.376;2023-03-14T08:58:00;10.63;;;3.80;;
37983;SDS011;64625;50.882;4.376;2023-03-14T09:00:26;6.50;;;3.83;;
37983;SDS011;64625;50.882;4.376;2023-03-14T09:02:52;7.50;;;4.50;;
37983;SDS011;64625;50.882;4.376;2023-03-14T09:05:18;10.35;;;4.13;;
37983;SDS011;64625;50.882;4.376;2023-03-14T09:07:44;7.10;;;4.03;;
37983;SDS011;64625;50.882;4.376;2023-03-14T09:10:10;14.60;;;5.10;;
37983;SDS011;64625;50.882;4.376;2023-03-14T09:12:36;8.00;;;4.80;;
37983;SDS011;64625;50.882;4.376;2023-03-14T09:15:02;11.43;;;5.22;;
37983;SDS011;64625;50.882;4.376;2023-03-14T09:17:28;11.93;;;5.05;;
37983;SDS011;64625;50.882;4.376;2023-03-14T09:19:54;20.35;;;5.60;;
37983;SDS011;64625;50.882;4.376;2023-03-14T09:22:20;16.17;;;5.20;;
37983;SDS011;64625;50.882;4.376;2023-03-14T09:24:46;10.50;;;6.18;;
37983;SDS011;64625;50.882;4.376;2023-03-14T09:27:12;16.98;;;5.78;;
37983;SDS011;64625;50.882;4.376;2023-03-14T09:29:38;22.58;;;5.20;;
37983;SDS011;64625;50.882;4.376;2023-03-14T09:32:04;19.98;;;4.88;;
37983;SDS011;64625;50.882;4.376;2023-03-14T09:34:33;14.60;;;4.30;;
37983;SDS011;64625;50.882;4.376;2023-03-14T09:36:59;19.25;;;5.15;;
37983;SDS011;64625;50.882;4.376;2023-03-14T09:39:25;16.08;;;6.28;;
37983;SDS011;64625;50.882;4.376;2023-03-14T09:41:51;21.38;;;4.50;;
37983;SDS011;64625;50.882;4.376;2023-03-14T09:44:21;14.70;;;4.53;;
37983;SDS011;64625;50.882;4.376;2023-03-14T09:47:04;15.38;;;4.35;;
37983;SDS011;64625;50.882;4.376;2023-03-14T09:49:33;12.98;;;3.78;;
37983;SDS011;64625;50.882;4.376;2023-03-14T09:52:04;17.13;;;4.35;;
37983;SDS011;64625;50.882;4.376;2023-03-14T09:54:47;17.25;;;4.32;;
37983;SDS011;64625;50.882;4.376;2023-03-14T09:57:40;18.83;;;3.95;;
37983;SDS011;64625;50.882;4.376;2023-03-14T10:00:29;15.52;;;5.30;;
37983;SDS011;64625;50.882;4.376;2023-03-14T10:03:38;18.38;;;5.60;;
37983;SDS011;64625;50.882;4.376;2023-03-14T10:05:54;17.10;;;4.63;;
37983;SDS011;64625;50.882;4.376;2023-03-14T10:08:21;17.65;;;4.20;;
37983;SDS011;64625;50.882;4.376;2023-03-14T10:10:47;16.85;;;4.68;;
37983;SDS011;64625;50.882;4.376;2023-03-14T10:13:20;27.95;;;4.68;;
37983;SDS011;64625;50.882;4.376;2023-03-14T10:16:02;16.15;;;5.18;;
37983;SDS011;64625;50.882;4.376;2023-03-14T10:18:31;19.25;;;4.05;;
37983;SDS011;64625;50.882;4.376;2023-03-14T10:23:32;12.07;;;3.95;;
37983;SDS011;64625;50.882;4.376;2023-03-14T10:26:03;16.02;;;3.63;;
37983;SDS011;64625;50.882;4.376;2023-03-14T10:29:01;10.57;;;3.20;;
37983;SDS011;64625;50.882;4.376;2023-03-14T10:31:28;20.67;;;3.17;;
37983;SDS011;64625;50.882;4.376;2023-03-14T10:34:25;11.90;;;3.42;;
37983;SDS011;64625;50.882;4.376;2023-03-14T10:36:57;21.15;;;4.07;;
37983;SDS011;64625;50.882;4.376;2023-03-14T10:39:34;19.40;;;3.70;;
37983;SDS011;64625;50.882;4.376;2023-03-14T10:42:33;11.95;;;3.10;;
37983;SDS011;64625;50.882;4.376;2023-03-14T10:45:05;20.45;;;4.65;;
37983;SDS011;64625;50.882;4.376;2023-03-14T10:47:52;4.45;;;2.17;;
37983;SDS011;64625;50.882;4.376;2023-03-14T10:52:51;16.98;;;3.53;;
37983;SDS011;64625;50.882;4.376;2023-03-14T10:55:18;17.67;;;2.90;;
37983;SDS011;64625;50.882;4.376;2023-03-14T10:57:43;3.60;;;2.50;;
37983;SDS011;64625;50.882;4.376;2023-03-14T11:00:20;10.77;;;3.17;;
37983;SDS011;64625;50.882;4.376;2023-03-14T11:02:59;11.38;;;3.58;;
37983;SDS011;64625;50.882;4.376;2023-03-14T11:11:19;7.57;;;1.98;;
37983;SDS011;64625;50.882;4.376;2023-03-14T11:25:18;6.40;;;1.90;;
37983;SDS011;64625;50.882;4.376;2023-03-14T11:35:43;11.85;;;1.85;;
37983;SDS011;64625;50.882;4.376;2023-03-14T11:41:02;8.13;;;1.60;;
37983;SDS011;64625;50.882;4.376;2023-03-14T11:43:35;5.90;;;1.70;;
37983;SDS011;64625;50.882;4.376;2023-03-14T11:46:50;2.78;;;1.60;;
37983;SDS011;64625;50.882;4.376;2023-03-14T11:49:10;11.40;;;2.45;;
37983;SDS011;64625;50.882;4.376;2023-03-14T11:51:41;6.38;;;1.48;;
37983;SDS011;64625;50.882;4.376;2023-03-14T11:54:14;1.27;;;0.90;;
37983;SDS011;64625;50.882;4.376;2023-03-14T11:57:03;0.82;;;0.80;;
37983;SDS011;64625;50.882;4.376;2023-03-14T12:02:25;3.45;;;1.17;;
37983;SDS011;64625;50.882;4.376;2023-03-14T12:10:37;25.27;;;3.58;;
37983;SDS011;64625;50.882;4.376;2023-03-14T12:13:06;2.17;;;1.55;;
37983;SDS011;64625;50.882;4.376;2023-03-14T12:15:36;8.20;;;2.35;;
37983;SDS011;64625;50.882;4.376;2023-03-14T12:18:14;5.88;;;1.95;;
37983;SDS011;64625;50.882;4.376;2023-03-14T12:20:56;12.82;;;2.67;;
37983;SDS011;64625;50.882;4.376;2023-03-14T12:23:24;12.43;;;1.73;;
37983;SDS011;64625;50.882;4.376;2023-03-14T12:26:12;10.02;;;2.72;;
37983;SDS011;64625;50.882;4.376;2023-03-14T12:29:23;11.80;;;3.80;;
37983;SDS011;64625;50.882;4.376;2023-03-14T12:32:05;15.10;;;3.22;;
37983;SDS011;64625;50.882;4.376;2023-03-14T12:34:34;6.20;;;1.63;;
37983;SDS011;64625;50.882;4.376;2023-03-14T12:37:25;5.97;;;2.90;;
37983;SDS011;64625;50.882;4.376;2023-03-14T12:48:08;10.38;;;3.03;;
37983;SDS011;64625;50.882;4.376;2023-03-14T12:50:54;14.65;;;2.95;;
37983;SDS011;64625;50.882;4.376;2023-03-14T13:02:26;4.75;;;2.22;;
37983;SDS011;64625;50.882;4.376;2023-03-14T13:05:23;3.67;;;2.20;;
37983;SDS011;64625;50.882;4.376;2023-03-14T13:10:19;6.07;;;2.85;;
37983;SDS011;64625;50.882;4.376;2023-03-14T13:17:51;14.95;;;2.65;;
37983;SDS011;64625;50.882;4.376;2023-03-14T13:20:30;11.02;;;3.83;;
37983;SDS011;64625;50.882;4.376;2023-03-14T13:22:59;8.20;;;2.72;;
37983;SDS011;64625;50.882;4.376;2023-03-14T13:25:28;5.30;;;2.08;;
37983;SDS011;64625;50.882;4.376;2023-03-14T13:27:57;25.05;;;3.08;;
37983;SDS011;64625;50.882;4.376;2023-03-14T13:32:50;14.77;;;2.65;;
37983;SDS011;64625;50.882;4.376;2023-03-14T13:35:22;25.23;;;3.33;;
37983;SDS011;64625;50.882;4.376;2023-03-14T13:38:00;18.17;;;4.05;;
37983;SDS011;64625;50.882;4.376;2023-03-14T13:40:29;16.70;;;2.83;;
37983;SDS011;64625;50.882;4.376;2023-03-14T13:43:01;24.85;;;3.92;;
37983;SDS011;64625;50.882;4.376;2023-03-14T13:45:29;20.25;;;3.13;;
37983;SDS011;64625;50.882;4.376;2023-03-14T13:47:55;36.13;;;3.70;;
37983;SDS011;64625;50.882;4.376;2023-03-14T13:50:21;16.77;;;3.03;;
37983;SDS011;64625;50.882;4.376;2023-03-14T13:52:54;20.38;;;4.53;;
37983;SDS011;64625;50.882;4.376;2023-03-14T13:55:23;15.85;;;3.65;;
37983;SDS011;64625;50.882;4.376;2023-03-14T13:57:50;18.85;;;3.78;;
37983;SDS011;64625;50.882;4.376;2023-03-14T14:00:26;29.08;;;5.30;;
37983;SDS011;64625;50.882;4.376;2023-03-14T14:02:54;19.15;;;3.83;;
37983;SDS011;64625;50.882;4.376;2023-03-14T14:05:23;29.88;;;5.78;;
37983;SDS011;64625;50.882;4.376;2023-03-14T14:07:53;23.63;;;3.85;;
37983;SDS011;64625;50.882;4.376;2023-03-14T14:10:19;33.45;;;4.57;;
37983;SDS011;64625;50.882;4.376;2023-03-14T14:12:56;35.20;;;6.63;;
37983;SDS011;64625;50.882;4.376;2023-03-14T14:18:06;42.47;;;5.05;;
37983;SDS011;64625;50.882;4.376;2023-03-14T14:20:40;35.28;;;5.85;;
37983;SDS011;64625;50.882;4.376;2023-03-14T14:23:19;30.85;;;4.10;;
37983;SDS011;64625;50.882;4.376;2023-03-14T14:25:53;35.17;;;4.97;;
37983;SDS011;64625;50.882;4.376;2023-03-14T14:28:32;21.95;;;3.50;;
37983;SDS011;64625;50.882;4.376;2023-03-14T14:36:24;21.13;;;2.67;;
37983;SDS011;64625;50.882;4.376;2023-03-14T14:38:52;21.40;;;4.47;;
37983;SDS011;64625;50.882;4.376;2023-03-14T14:41:41;23.63;;;2.90;;
37983;SDS011;64625;50.882;4.376;2023-03-14T14:44:11;33.67;;;3.88;;
37983;SDS011;64625;50.882;4.376;2023-03-14T14:46:41;21.38;;;3.80;;
37983;SDS011;64625;50.882;4.376;2023-03-14T14:49:12;15.32;;;1.63;;
37983;SDS011;64625;50.882;4.376;2023-03-14T14:51:44;21.95;;;2.40;;
37983;SDS011;64625;50.882;4.376;2023-03-14T14:54:17;4.40;;;1.20;;
37983;SDS011;64625;50.882;4.376;2023-03-14T14:57:03;3.53;;;1.35;;
37983;SDS011;64625;50.882;4.376;2023-03-14T15:02:01;3.58;;;2.80;;
37983;SDS011;64625;50.882;4.376;2023-03-14T15:04:30;4.50;;;1.08;;
37983;SDS011;64625;50.882;4.376;2023-03-14T15:06:56;1.52;;;0.68;;
37983;SDS011;64625;50.882;4.376;2023-03-14T15:09:22;2.15;;;1.30;;
37983;SDS011;64625;50.882;4.376;2023-03-14T15:11:49;7.60;;;1.20;;
37983;SDS011;64625;50.882;4.376;2023-03-14T15:14:15;4.80;;;1.30;;
37983;SDS011;64625;50.882;4.376;2023-03-14T15:16:41;4.57;;;1.10;;
37983;SDS011;64625;50.882;4.376;2023-03-14T15:19:11;4.85;;;3.97;;
37983;SDS011;64625;50.882;4.376;2023-03-14T15:21:49;4.00;;;3.42;;
37983;SDS011;64625;50.882;4.376;2023-03-14T15:24:16;7.80;;;1.58;;
37983;SDS011;64625;50.882;4.376;2023-03-14T15:26:41;3.22;;;1.15;;
37983;SDS011;64625;50.882;4.376;2023-03-14T15:29:09;3.17;;;0.80;;
37983;SDS011;64625;50.882;4.376;2023-03-14T15:31:37;3.63;;;1.40;;
37983;SDS011;64625;50.882;4.376;2023-03-14T15:34:11;2.05;;;1.23;;
37983;SDS011;64625;50.882;4.376;2023-03-14T15:36:37;12.00;;;1.55;;
37983;SDS011;64625;50.882;4.376;2023-03-14T15:39:04;11.38;;;1.30;;
37983;SDS011;64625;50.882;4.376;2023-03-14T15:41:31;6.68;;;1.20;;
37983;SDS011;64625;50.882;4.376;2023-03-14T15:43:57;4.70;;;1.33;;
37983;SDS011;64625;50.882;4.376;2023-03-14T15:46:23;6.63;;;1.38;;
37983;SDS011;64625;50.882;4.376;2023-03-14T15:48:50;5.13;;;1.33;;
37983;SDS011;64625;50.882;4.376;2023-03-14T15:51:20;7.82;;;1.75;;
37983;SDS011;64625;50.882;4.376;2023-03-14T15:53:46;2.67;;;1.13;;
37983;SDS011;64625;50.882;4.376;2023-03-14T15:56:13;7.03;;;1.70;;
37983;SDS011;64625;50.882;4.376;2023-03-14T15:58:40;2.35;;;1.60;;
37983;SDS011;64625;50.882;4.376;2023-03-14T16:01:07;2.30;;;1.00;;
37983;SDS011;64625;50.882;4.376;2023-03-14T16:03:36;7.65;;;1.58;;
37983;SDS011;64625;50.882;4.376;2023-03-14T16:06:18;3.60;;;1.23;;
37983;SDS011;64625;50.882;4.376;2023-03-14T16:08:55;4.53;;;1.30;;
37983;SDS011;64625;50.882;4.376;2023-03-14T16:11:22;8.13;;;1.50;;
37983;SDS011;64625;50.882;4.376;2023-03-14T16:13:48;2.30;;;1.33;;
37983;SDS011;64625;50.882;4.376;2023-03-14T16:16:14;5.15;;;1.50;;
37983;SDS011;64625;50.882;4.376;2023-03-14T16:18:40;4.20;;;1.20;;
37983;SDS011;64625;50.882;4.376;2023-03-14T16:21:07;4.68;;;1.50;;
37983;SDS011;64625;50.882;4.376;2023-03-14T16:23:38;15.48;;;4.97;;